Time;durP1;ratioP1;P1;durP2;ratioP2;P2;SDS_P1;SDS_P2;PMS_P1;PMS_P2;Temp;Humidity;BMP_temperature;BMP_pressure;BME280_temperature;BME280_humidity;BME280_pressure;Samples;Min_cycle;Max_cycle;Signal;HPM_P1;HPM_P2
2021/10/26 00:05:55;;;;;;;38.10;18.12;;;;;;;0.81;100.00;99737.30;4440691;79;28463;-85
2021/10/26 00:11:58;;;;;;;35.63;17.20;;;;;;;0.74;100.00;99741.05;4410065;79;28521;-85
2021/10/26 00:18:00;;;;;;;40.33;19.10;;;;;;;0.63;100.00;99742.59;4443995;79;28497;-84
2021/10/26 00:24:02;;;;;;;43.23;19.57;;;;;;;0.66;100.00;99744.92;4462505;79;28491;-85
2021/10/26 00:30:06;;;;;;;41.00;18.23;;;;;;;0.80;100.00;99735.64;4438200;79;28452;-85
2021/10/26 00:36:08;;;;;;;38.88;18.65;;;;;;;0.61;100.00;99729.48;4342704;80;28605;-84
2021/10/26 00:42:11;;;;;;;39.42;17.62;;;;;;;0.72;100.00;99721.00;4372665;80;28500;-84
2021/10/26 00:48:13;;;;;;;37.83;17.45;;;;;;;0.65;100.00;99713.67;4373971;80;28505;-85
2021/10/26 00:54:15;;;;;;;40.45;18.77;;;;;;;0.59;100.00;99726.17;4341689;80;28495;-84
2021/10/26 01:00:20;;;;;;;36.60;17.60;;;;;;;0.47;100.00;99730.00;4414129;79;44433;-84
2021/10/26 01:06:21;;;;;;;41.08;19.07;;;;;;;0.35;100.00;99707.73;4402856;79;28728;-84
2021/10/26 01:12:23;;;;;;;41.55;18.80;;;;;;;0.37;100.00;99716.84;4405240;79;28438;-85
2021/10/26 01:18:26;;;;;;;42.33;19.45;;;;;;;0.39;100.00;99710.91;4358102;80;43788;-85
2021/10/26 01:24:27;;;;;;;47.10;20.68;;;;;;;0.50;100.00;99727.05;4357431;80;28499;-85
2021/10/26 01:30:33;;;;;;;42.83;18.95;;;;;;;0.41;100.00;99722.17;4358651;80;28505;-84
2021/10/26 01:36:35;;;;;;;42.93;18.95;;;;;;;0.44;100.00;99721.05;4353053;80;28441;-83
2021/10/26 01:42:37;;;;;;;43.33;20.00;;;;;;;0.45;100.00;99717.42;4369130;81;28474;-84
2021/10/26 01:48:38;;;;;;;43.38;20.15;;;;;;;0.35;100.00;99714.81;4369789;81;28481;-86
2021/10/26 01:54:40;;;;;;;44.53;20.57;;;;;;;0.31;100.00;99720.07;4373527;81;28483;-86
2021/10/26 02:00:41;;;;;;;39.15;18.30;;;;;;;0.08;100.00;99729.72;4364097;80;44427;-86
2021/10/26 02:06:44;;;;;;;41.30;19.48;;;;;;;0.05;100.00;99724.70;4354686;80;28480;-86
2021/10/26 02:12:46;;;;;;;39.78;18.95;;;;;;;0.06;100.00;99733.00;4367627;80;28504;-86
2021/10/26 02:18:48;;;;;;;40.50;18.32;;;;;;;0.05;100.00;99732.16;4382766;80;28465;-85
2021/10/26 02:24:50;;;;;;;45.48;18.48;;;;;;;-0.08;100.00;99729.02;4382197;81;28472;-84
2021/10/26 02:30:52;;;;;;;47.17;21.15;;;;;;;0.05;100.00;99722.91;4382412;81;28480;-84
2021/10/26 02:36:54;;;;;;;43.20;20.02;;;;;;;0.11;100.00;99736.03;4376009;81;28489;-85
2021/10/26 02:42:56;;;;;;;45.10;19.90;;;;;;;0.07;100.00;99739.45;4364864;80;28466;-83
2021/10/26 02:48:57;;;;;;;42.90;19.37;;;;;;;0.10;100.00;99725.93;4448922;79;43590;-85
2021/10/26 02:54:59;;;;;;;51.95;22.60;;;;;;;0.02;100.00;99721.03;4381678;80;28558;-84
2021/10/26 03:01:00;;;;;;;48.13;21.77;;;;;;;0.03;100.00;99734.13;4360112;80;28532;-84
2021/10/26 03:07:02;;;;;;;48.55;21.73;;;;;;;0.07;100.00;99730.70;4407125;78;44497;-84
2021/10/26 03:13:04;;;;;;;46.85;21.30;;;;;;;-0.05;100.00;99738.82;4448822;79;28491;-83
2021/10/26 03:19:06;;;;;;;45.65;22.20;;;;;;;-0.13;100.00;99743.99;4336917;81;28475;-84
2021/10/26 03:25:08;;;;;;;45.75;21.02;;;;;;;-0.21;100.00;99755.29;4371256;81;43733;-84
2021/10/26 03:31:10;;;;;;;44.70;20.68;;;;;;;-0.09;100.00;99754.61;4371340;81;28450;-83
2021/10/26 03:37:28;;;;;;;44.45;20.95;;;;;;;-0.18;100.00;99759.44;4263144;82;43739;-84
2021/10/26 03:43:30;;;;;;;42.95;20.45;;;;;;;-0.31;100.00;99759.26;4359595;80;28549;-83
2021/10/26 03:49:31;;;;;;;41.92;19.82;;;;;;;-0.03;100.00;99753.20;4362988;82;28508;-83
2021/10/26 03:55:32;;;;;;;47.17;20.55;;;;;;;-0.24;100.00;99763.48;4413433;80;28445;-84
2021/10/26 04:01:36;;;;;;;45.17;20.17;;;;;;;-0.29;100.00;99755.16;4390840;80;43861;-84
2021/10/26 04:07:51;;;;;;;46.45;21.48;;;;;;;-0.13;100.00;99753.24;4392699;80;43705;-84
2021/10/26 04:13:49;;;;;;;45.08;20.62;;;;;;;-0.24;100.00;99758.70;4393149;81;28585;-86
2021/10/26 04:19:54;;;;;;;41.00;19.07;;;;;;;-0.33;100.00;99749.80;4384521;80;44505;-85
2021/10/26 04:25:55;;;;;;;42.55;19.75;;;;;;;-0.27;100.00;99747.92;4364536;80;28470;-83
2021/10/26 04:31:58;;;;;;;41.10;18.85;;;;;;;-0.46;100.00;99745.66;4449007;79;28480;-84
2021/10/26 04:38:03;;;;;;;41.85;18.65;;;;;;;-0.52;100.00;99744.08;4356474;81;42846;-84
2021/10/26 04:44:05;;;;;;;40.88;19.00;;;;;;;-0.50;100.00;99740.33;4382191;81;44539;-84
2021/10/26 04:50:07;;;;;;;42.45;19.70;;;;;;;-0.65;100.00;99752.29;4349975;80;43689;-84
2021/10/26 04:56:10;;;;;;;40.00;19.02;;;;;;;-0.55;100.00;99754.43;4380374;80;44439;-85
2021/10/26 05:02:16;;;;;;;42.08;19.70;;;;;;;-0.66;100.00;99754.11;4364372;81;28503;-84
2021/10/26 05:08:18;;;;;;;47.67;22.67;;;;;;;-0.63;100.00;99751.18;4335913;80;44402;-85
2021/10/26 05:14:19;;;;;;;47.62;21.10;;;;;;;-0.57;100.00;99755.91;4381313;81;43740;-84
2021/10/26 05:20:35;;;;;;;62.03;28.90;;;;;;;-0.37;100.00;99755.85;4357056;80;28450;-85
2021/10/26 05:26:45;;;;;;;42.67;20.10;;;;;;;-0.49;100.00;99760.95;4360734;81;43799;-86
2021/10/26 05:32:47;;;;;;;43.30;19.32;;;;;;;-0.45;100.00;99763.68;4357642;82;43714;-85
2021/10/26 05:38:48;;;;;;;43.05;19.65;;;;;;;-0.44;100.00;99768.80;4360700;81;43710;-86
2021/10/26 05:44:50;;;;;;;46.02;20.27;;;;;;;-0.54;100.00;99764.02;4358269;82;43723;-85
2021/10/26 05:50:51;;;;;;;48.50;19.95;;;;;;;-0.45;100.00;99768.96;4313134;81;28539;-87
2021/10/26 05:56:54;;;;;;;41.77;19.48;;;;;;;-0.47;100.00;99777.02;4335754;82;28521;-86
2021/10/26 06:02:55;;;;;;;46.42;20.45;;;;;;;-0.37;100.00;99774.85;4336504;82;43731;-80
2021/10/26 06:08:57;;;;;;;46.60;20.90;;;;;;;-0.40;100.00;99787.03;4347369;82;43726;-83
2021/10/26 06:14:58;;;;;;;43.83;19.95;;;;;;;-0.07;100.00;99796.77;4338448;82;43736;-83
2021/10/26 06:21:00;;;;;;;45.23;20.17;;;;;;;0.02;100.00;99802.53;4400432;80;43761;-83
2021/10/26 06:27:02;;;;;;;38.75;19.20;;;;;;;0.21;100.00;99804.73;4367571;80;44409;-82
2021/10/26 06:33:04;;;;;;;43.78;20.65;;;;;;;0.37;100.00;99810.77;4364222;81;28553;-82
2021/10/26 06:39:20;;;;;;;44.33;20.15;;;;;;;0.63;100.00;99814.89;4379746;80;28461;-89
2021/10/26 06:45:19;;;;;;;41.75;20.48;;;;;;;0.72;100.00;99820.26;4400777;79;28509;-84
2021/10/26 06:51:22;;;;;;;43.40;21.30;;;;;;;0.88;100.00;99813.83;4259545;82;28472;-85
2021/10/26 06:57:45;;;;;;;42.35;20.57;;;;;;;1.05;100.00;99817.48;4352812;82;28477;-83
2021/10/26 07:04:01;;;;;;;41.95;20.12;;;;;;;1.38;100.00;99824.93;4385829;81;28520;-86
2021/10/26 07:10:20;;;;;;;45.48;19.98;;;;;;;1.61;100.00;99823.94;4376111;79;28471;-87
2021/10/26 07:16:35;;;;;;;44.73;20.92;;;;;;;1.92;100.00;99818.20;4388049;79;28629;-84
2021/10/26 07:22:38;;;;;;;49.85;22.52;;;;;;;2.05;100.00;99820.45;4376841;81;28569;-82
2021/10/26 07:28:58;;;;;;;42.38;20.08;;;;;;;2.36;100.00;99829.25;4395550;79;28527;-80
2021/10/26 07:35:03;;;;;;;42.10;19.12;;;;;;;2.75;100.00;99819.14;4344229;81;28510;-82
2021/10/26 07:41:05;;;;;;;37.48;18.32;;;;;;;3.06;100.00;99817.23;4360462;81;28486;-85
2021/10/26 07:47:09;;;;;;;38.00;16.05;;;;;;;3.34;100.00;99810.31;4340978;81;28544;-82
2021/10/26 07:59:24;;;;;;;38.10;18.07;;;;;;;4.00;100.00;99806.28;3801635;90;28581;-84
2021/10/26 08:05:26;;;;;;;47.78;21.10;;;;;;;4.44;100.00;99813.48;3827654;92;28541;-85
2021/10/26 08:11:29;;;;;;;41.68;19.45;;;;;;;4.70;100.00;99796.41;3826210;92;28490;-88
2021/10/26 08:17:31;;;;;;;39.98;18.30;;;;;;;4.79;100.00;99798.04;3825823;92;28491;-84
2021/10/26 08:23:32;;;;;;;35.90;16.55;;;;;;;4.92;100.00;99793.45;3825627;92;28510;-85
2021/10/26 08:29:42;;;;;;;33.80;16.85;;;;;;;5.17;100.00;99793.31;3821925;92;28497;-84
2021/10/26 08:35:39;;;;;;;27.35;13.58;;;;;;;5.44;100.00;99784.44;4130002;81;28489;-90
2021/10/26 08:41:46;;;;;;;30.17;15.23;;;;;;;5.80;100.00;99789.63;4368563;81;28481;-89
2021/10/26 08:47:48;;;;;;;31.00;15.17;;;;;;;6.09;100.00;99787.56;4376088;81;28480;-87
2021/10/26 08:54:07;;;;;;;32.25;15.00;;;;;;;6.30;100.00;99793.17;4367568;81;28508;-89
2021/10/26 09:00:15;;;;;;;31.77;15.48;;;;;;;6.64;100.00;99789.92;4378165;81;28488;-89
2021/10/26 09:06:25;;;;;;;26.75;13.83;;;;;;;6.66;100.00;99789.72;4392851;78;28456;-88
2021/10/26 09:18:48;;;;;;;;;;;;;;;7.24;100.00;99779.56;4409105;81;28485;-87
2021/10/26 09:24:59;;;;;;;24.05;10.95;;;;;;;7.49;95.61;99784.51;4424721;80;20238;-90
2021/10/26 09:31:03;;;;;;;;;;;;;;;7.71;98.85;99784.52;4304134;83;28514;-87
2021/10/26 09:37:04;;;;;;;26.60;11.38;;;;;;;8.22;93.54;99782.88;4325888;82;20566;-83
2021/10/26 09:43:11;;;;;;;21.62;9.40;;;;;;;8.59;93.14;99774.66;4341536;82;28513;-85
2021/10/26 09:49:32;;;;;;;20.85;9.45;;;;;;;9.00;90.36;99764.88;4341710;82;28511;-89
2021/10/26 09:55:42;;;;;;;14.30;6.03;;;;;;;9.27;89.28;99756.05;4382653;81;28538;-83
2021/10/26 10:01:56;;;;;;;11.83;5.03;;;;;;;9.49;79.55;99754.02;4339472;81;28559;-83
2021/10/26 10:07:59;;;;;;;8.00;3.65;;;;;;;9.92;76.68;99751.92;4359033;80;28475;-83
2021/10/26 10:14:02;;;;;;;9.78;4.10;;;;;;;10.23;66.82;99757.12;4339393;81;28523;-85
2021/10/26 10:20:08;;;;;;;7.55;3.55;;;;;;;10.54;69.57;99747.00;4340443;82;28557;-84
2021/10/26 10:26:15;;;;;;;8.43;3.62;;;;;;;10.64;67.58;99725.55;4350657;81;28684;-84
2021/10/26 10:32:16;;;;;;;9.20;4.53;;;;;;;10.80;66.86;99720.19;4410214;81;28491;-84
2021/10/26 10:38:18;;;;;;;10.88;5.30;;;;;;;10.79;64.16;99714.50;4410505;81;28472;-83
2021/10/26 10:44:28;;;;;;;10.75;4.85;;;;;;;11.17;65.54;99701.53;4399584;79;28528;-84
2021/10/26 10:50:38;;;;;;;10.95;5.78;;;;;;;11.36;64.81;99694.34;4409497;81;28451;-84
2021/10/26 10:56:39;;;;;;;8.80;4.60;;;;;;;11.52;60.82;99693.48;4410243;81;28612;-83
2021/10/26 11:02:48;;;;;;;11.48;5.00;;;;;;;11.64;61.19;99682.80;4396613;81;28448;-86
2021/10/26 11:08:52;;;;;;;14.65;6.08;;;;;;;11.80;57.49;99681.39;4388756;79;28500;-84
2021/10/26 11:14:57;;;;;;;8.20;3.70;;;;;;;12.00;58.70;99668.52;4409483;79;28526;-85
2021/10/26 11:21:05;;;;;;;9.80;4.12;;;;;;;12.10;57.72;99669.39;4410549;81;28566;-82
2021/10/26 11:27:12;;;;;;;6.50;3.50;;;;;;;12.16;55.85;99658.23;4396250;81;28472;-81
2021/10/26 11:33:19;;;;;;;7.30;3.40;;;;;;;12.30;58.29;99648.10;4348557;81;28551;-83
2021/10/26 11:39:23;;;;;;;6.55;3.10;;;;;;;12.46;56.08;99638.55;4305625;82;28484;-81
2021/10/26 11:45:26;;;;;;;8.65;3.37;;;;;;;12.50;54.92;99645.66;4334466;81;28474;-81
2021/10/26 11:51:40;;;;;;;6.85;3.27;;;;;;;12.38;54.17;99637.52;4364311;82;28545;-79
2021/10/26 11:57:43;;;;;;;5.40;3.10;;;;;;;12.13;52.40;99646.53;4336356;80;28570;-82
2021/10/26 12:03:49;;;;;;;5.47;3.10;;;;;;;12.07;51.81;99637.48;4312982;82;28504;-82
2021/10/26 12:10:00;;;;;;;5.33;3.30;;;;;;;12.11;53.27;99627.91;4317144;81;28476;-82
2021/10/26 12:16:15;;;;;;;5.95;2.90;;;;;;;12.10;53.38;99632.16;4290148;82;28535;-80
2021/10/26 12:22:25;;;;;;;6.90;3.17;;;;;;;12.24;53.07;99617.48;4297019;81;28519;-79
2021/10/26 12:28:27;;;;;;;4.83;2.90;;;;;;;12.40;53.74;99607.94;4290456;82;28473;-80
2021/10/26 12:34:30;;;;;;;6.95;2.80;;;;;;;12.49;54.35;99598.98;4347244;80;28525;-81
2021/10/26 12:40:43;;;;;;;6.25;3.47;;;;;;;12.59;54.31;99591.66;4337316;80;28429;-78
2021/10/26 12:46:45;;;;;;;6.37;2.72;;;;;;;12.58;56.29;99601.36;4348270;80;28471;-80
2021/10/26 12:53:08;;;;;;;5.70;3.20;;;;;;;12.60;56.15;99601.43;4335788;80;28596;-82
2021/10/26 12:59:18;;;;;;;5.08;3.30;;;;;;;12.73;55.84;99595.53;4319529;80;28521;-83
2021/10/26 13:05:17;;;;;;;7.10;3.10;;;;;;;12.67;51.69;99590.53;4368614;80;28521;-77
2021/10/26 13:11:38;;;;;;;7.58;3.80;;;;;;;12.73;54.19;99595.53;4444576;79;28465;-76
2021/10/26 13:17:52;;;;;;;8.13;3.83;;;;;;;12.56;52.17;99598.88;4376509;80;28473;-78
2021/10/26 13:23:53;;;;;;;10.48;4.20;;;;;;;12.69;54.66;99594.63;4386502;80;28475;-76
2021/10/26 13:29:55;;;;;;;8.58;4.22;;;;;;;12.44;53.28;99595.33;4386245;79;28500;-78
2021/10/26 13:36:01;;;;;;;6.28;3.55;;;;;;;12.22;53.14;99588.56;4377688;80;28470;-81
2021/10/26 13:42:02;;;;;;;9.95;4.45;;;;;;;12.35;55.71;99599.70;4382093;80;28440;-82
2021/10/26 13:48:04;;;;;;;10.00;4.55;;;;;;;12.20;55.61;99608.19;4401858;80;28540;-83
2021/10/26 13:54:06;;;;;;;9.55;4.50;;;;;;;12.07;58.11;99602.98;4359878;79;28484;-82
2021/10/26 14:00:13;;;;;;;8.38;4.35;;;;;;;12.07;58.48;99602.44;4347031;80;28464;-81
2021/10/26 14:06:15;;;;;;;10.72;4.75;;;;;;;12.05;58.90;99603.20;4377398;80;28438;-83
2021/10/26 14:12:17;;;;;;;9.33;4.58;;;;;;;12.08;60.33;99610.84;4348468;80;28456;-81
2021/10/26 14:18:18;;;;;;;8.13;4.12;;;;;;;12.14;61.21;99609.12;4380109;80;28480;-81
2021/10/26 14:24:20;;;;;;;11.25;5.10;;;;;;;12.08;62.96;99613.55;4377209;80;28478;-79
2021/10/26 14:30:23;;;;;;;10.30;5.15;;;;;;;11.90;65.23;99615.68;4391423;80;28541;-80
2021/10/26 14:36:39;;;;;;;9.83;4.65;;;;;;;11.71;67.43;99615.71;4359957;80;28480;-81
2021/10/26 14:42:41;;;;;;;9.23;4.73;;;;;;;11.49;69.59;99619.35;4277541;81;28472;-81
2021/10/26 14:55:13;;;;;;;11.22;5.03;;;;;;;10.99;74.71;99608.93;4281641;81;28501;-82
2021/10/26 15:01:09;;;;;;;8.58;4.53;;;;;;;10.60;79.53;99607.67;4360616;80;28476;-80
2021/10/26 15:07:10;;;;;;;10.63;4.95;;;;;;;10.41;80.85;99604.08;4305718;81;28459;-82
2021/10/26 15:13:27;;;;;;;12.47;5.45;;;;;;;10.09;81.93;99614.73;4354638;80;28563;-80
2021/10/26 15:19:29;;;;;;;12.45;5.25;;;;;;;9.90;82.36;99621.34;4288885;81;28459;-79
2021/10/26 15:38:10;;;;;;;13.00;6.47;;;;;;;9.07;100.00;99646.87;4451202;79;28435;-79
2021/10/26 15:44:11;;;;;;;13.78;6.30;;;;;;;8.91;95.93;99650.78;4391003;79;28521;-82
2021/10/26 15:50:12;;;;;;;14.68;6.65;;;;;;;8.73;100.00;99655.41;4393796;79;28473;-84
2021/10/26 15:56:13;;;;;;;16.07;8.73;;;;;;;8.58;100.00;99667.11;4402433;79;28438;-84
2021/10/26 16:02:16;;;;;;;20.95;8.20;;;;;;;8.62;100.00;99673.73;4378417;79;28449;-83
2021/10/26 16:08:21;;;;;;;17.32;7.50;;;;;;;8.46;100.00;99682.09;4394457;79;28431;-84
2021/10/26 16:14:26;;;;;;;15.80;7.47;;;;;;;8.21;100.00;99699.52;4401956;79;28519;-81
2021/10/26 16:20:26;;;;;;;18.25;7.83;;;;;;;8.12;100.00;99683.30;4405266;79;28447;-85
2021/10/26 16:26:27;;;;;;;23.85;9.40;;;;;;;8.05;100.00;99694.52;4399718;79;28474;-77
2021/10/26 16:32:29;;;;;;;19.67;9.13;;;;;;;7.87;100.00;99695.05;4409845;81;28459;-78
2021/10/26 16:38:30;;;;;;;22.82;8.68;;;;;;;7.68;100.00;99696.86;4359329;79;28494;-82
2021/10/26 16:44:48;;;;;;;21.17;9.08;;;;;;;7.63;100.00;99701.16;4389988;79;28470;-79
2021/10/26 16:50:38;;;;;;;21.12;9.65;;;;;;;7.68;100.00;99700.06;4390504;79;28471;-79
2021/10/26 16:56:40;;;;;;;25.02;10.68;;;;;;;7.72;100.00;99711.22;4367277;79;28510;-79
2021/10/26 17:02:43;;;;;;;25.23;11.88;;;;;;;7.71;100.00;99721.08;4396272;79;28512;-79
2021/10/26 17:08:48;;;;;;;24.65;10.90;;;;;;;7.72;100.00;99713.36;4413046;78;28484;-79
2021/10/26 17:14:49;;;;;;;23.02;10.28;;;;;;;7.53;100.00;99717.56;4345864;80;28459;-80
2021/10/26 17:20:51;;;;;;;20.40;10.80;;;;;;;7.31;100.00;99739.00;4343544;80;28550;-83
2021/10/26 17:26:52;;;;;;;21.48;9.70;;;;;;;7.29;100.00;99749.07;4342312;80;28456;-81
2021/10/26 17:32:54;;;;;;;20.10;9.05;;;;;;;7.27;100.00;99754.28;4356835;80;28517;-81
2021/10/26 17:39:02;;;;;;;24.35;9.55;;;;;;;7.33;100.00;99760.19;4344983;80;28475;-79
2021/10/26 17:45:05;;;;;;;25.35;12.73;;;;;;;7.37;100.00;99761.48;4371961;80;28458;-79
2021/10/26 17:51:09;;;;;;;30.57;13.98;;;;;;;7.35;100.00;99753.63;4349464;80;28461;-79
2021/10/26 17:57:10;;;;;;;33.05;14.55;;;;;;;7.27;100.00;99757.77;4361884;80;28456;-80
2021/10/26 18:03:11;;;;;;;29.37;14.15;;;;;;;7.21;100.00;99761.23;4359911;80;28529;-80
2021/10/26 18:09:14;;;;;;;31.68;13.80;;;;;;;7.18;100.00;99763.77;4359589;80;28452;-78
2021/10/26 18:15:16;;;;;;;30.32;13.93;;;;;;;7.04;100.00;99773.50;4353852;80;28476;-77
2021/10/26 18:21:17;;;;;;;32.85;15.10;;;;;;;7.03;100.00;99765.66;4354214;80;28500;-76
2021/10/26 18:27:23;;;;;;;40.63;18.85;;;;;;;7.06;100.00;99773.32;4335221;80;28530;-82
2021/10/26 18:33:27;;;;;;;35.65;15.90;;;;;;;7.17;100.00;99776.83;4360001;80;28499;-81
2021/10/26 18:39:28;;;;;;;43.10;19.42;;;;;;;7.10;100.00;99779.44;4348986;80;28453;-84
2021/10/26 18:45:41;;;;;;;42.73;20.05;;;;;;;7.10;100.00;99787.46;4368801;80;28483;-79
2021/10/26 18:51:36;;;;;;;40.03;20.12;;;;;;;7.15;100.00;99785.55;4345604;80;28507;-82
2021/10/26 18:57:37;;;;;;;43.08;21.97;;;;;;;7.15;100.00;99794.07;4349899;80;28454;-87
2021/10/26 19:03:39;;;;;;;43.73;20.88;;;;;;;7.17;100.00;99792.88;4357720;80;28535;-84
2021/10/26 19:09:42;;;;;;;40.05;20.55;;;;;;;7.24;100.00;99788.42;4366365;80;28473;-91
2021/10/26 19:15:44;;;;;;;47.98;23.18;;;;;;;7.27;100.00;99790.39;4408959;79;28555;-85
2021/10/26 19:21:47;;;;;;;57.58;27.85;;;;;;;7.28;100.00;99792.86;4336923;80;28474;-87
2021/10/26 19:27:53;;;;;;;66.50;30.72;;;;;;;7.13;100.00;99796.11;4423510;79;28520;-88
2021/10/26 19:33:54;;;;;;;63.58;30.20;;;;;;;6.97;100.00;99802.00;4411233;78;28511;-87
2021/10/26 19:39:58;;;;;;;60.98;29.90;;;;;;;6.89;100.00;99822.19;4441560;78;28447;-88
2021/10/26 19:45:59;;;;;;;59.88;27.93;;;;;;;6.82;100.00;99822.08;4342379;80;28473;-88
2021/10/26 19:52:07;;;;;;;51.60;27.25;;;;;;;6.67;100.00;99818.94;4343247;80;28517;-89
2021/10/26 19:58:07;;;;;;;65.40;30.70;;;;;;;6.70;100.00;99817.74;4407795;78;28472;-88
2021/10/26 20:04:08;;;;;;;61.37;31.17;;;;;;;6.65;100.00;99822.30;4399279;80;28454;-91
2021/10/26 20:10:10;;;;;;;62.43;30.57;;;;;;;6.58;100.00;99849.44;4443999;78;28460;-89
2021/10/26 20:16:12;;;;;;;70.40;34.10;;;;;;;6.55;100.00;99853.83;4379829;80;28478;-88
2021/10/26 20:22:24;;;;;;;61.98;29.60;;;;;;;6.45;100.00;99863.43;4371507;80;28535;-89
2021/10/26 20:28:30;;;;;;;56.85;29.00;;;;;;;6.32;100.00;99868.59;4366510;80;28555;-86
2021/10/26 20:34:20;;;;;;;63.63;32.23;;;;;;;6.44;100.00;99870.31;4331036;80;28488;-88
2021/10/26 20:40:22;;;;;;;66.85;31.37;;;;;;;6.45;100.00;99890.67;4348444;80;28464;-84
2021/10/26 20:46:24;;;;;;;66.12;31.42;;;;;;;6.45;100.00;99885.33;4338219;80;28527;-85
2021/10/26 20:52:26;;;;;;;63.45;31.33;;;;;;;6.31;100.00;99895.82;4347493;80;28491;-87
2021/10/26 20:58:28;;;;;;;58.28;28.40;;;;;;;6.32;100.00;99885.95;4308448;80;28453;-88
2021/10/26 21:04:30;;;;;;;55.58;26.50;;;;;;;6.24;100.00;99891.69;4317463;80;28443;-86
2021/10/26 21:10:32;;;;;;;71.00;32.53;;;;;;;6.24;100.00;99894.36;4343959;80;28468;-87
2021/10/26 21:16:33;;;;;;;70.50;34.45;;;;;;;6.27;100.00;99897.17;4408947;79;28469;-87
2021/10/26 21:22:35;;;;;;;74.70;36.75;;;;;;;6.24;100.00;99894.36;4398301;80;28495;-85
2021/10/26 21:28:38;;;;;;;78.35;35.52;;;;;;;6.17;100.00;99895.27;4395873;80;28533;-86
2021/10/26 21:34:43;;;;;;;66.95;33.70;;;;;;;6.09;100.00;99902.86;4441882;78;28535;-87
2021/10/26 21:40:50;;;;;;;68.10;33.42;;;;;;;5.99;100.00;99901.75;4379272;79;28509;-87
2021/10/26 21:46:51;;;;;;;69.77;32.88;;;;;;;6.00;100.00;99903.41;4438203;78;28500;-86
2021/10/26 21:52:52;;;;;;;66.97;33.42;;;;;;;5.90;100.00;99914.31;4357526;80;28475;-85
2021/10/26 21:58:54;;;;;;;76.17;34.53;;;;;;;5.91;100.00;99900.48;4367362;80;28522;-86
2021/10/26 22:04:55;;;;;;;76.82;34.67;;;;;;;5.80;100.00;99903.05;4379162;79;28464;-87
2021/10/26 22:10:57;;;;;;;71.47;35.68;;;;;;;5.70;100.00;99894.78;4376561;79;28469;-87
2021/10/26 22:16:59;;;;;;;63.95;31.17;;;;;;;5.61;100.00;99908.36;4375167;79;28457;-87
2021/10/26 22:23:01;;;;;;;60.33;30.10;;;;;;;5.53;100.00;99900.73;4396339;79;28539;-84
2021/10/26 22:29:03;;;;;;;58.25;29.18;;;;;;;5.57;100.00;99894.55;4372679;79;28503;-84
2021/10/26 22:35:05;;;;;;;64.70;32.95;;;;;;;5.54;100.00;99902.39;4373238;80;28462;-85
2021/10/26 22:41:06;;;;;;;67.50;31.42;;;;;;;5.54;100.00;99897.05;4356126;80;28524;-86
2021/10/26 22:47:08;;;;;;;61.75;31.07;;;;;;;5.67;100.00;99913.81;4354672;80;28501;-84
2021/10/26 22:53:12;;;;;;;64.90;32.90;;;;;;;5.63;100.00;99906.34;4333967;80;28531;-86
2021/10/26 22:59:14;;;;;;;60.05;29.82;;;;;;;5.69;100.00;99907.80;4355100;80;28454;-84
2021/10/26 23:05:16;;;;;;;53.20;27.40;;;;;;;5.71;100.00;99900.95;4362220;80;28442;-83
2021/10/26 23:11:18;;;;;;;54.05;26.50;;;;;;;5.87;100.00;99918.69;4352154;80;28466;-85
2021/10/26 23:17:19;;;;;;;58.35;29.18;;;;;;;6.06;100.00;99909.37;4349039;80;28477;-84
2021/10/26 23:23:20;;;;;;;58.08;29.20;;;;;;;6.14;100.00;99902.64;4364607;80;28544;-84
2021/10/26 23:29:22;;;;;;;62.55;30.12;;;;;;;6.21;100.00;99905.93;4369098;80;28472;-85
2021/10/26 23:35:23;;;;;;;60.65;30.27;;;;;;;6.27;100.00;99906.52;4344781;80;28461;-85
2021/10/26 23:41:24;;;;;;;60.83;31.05;;;;;;;6.20;100.00;99905.61;4364214;80;28448;-85
2021/10/26 23:47:26;;;;;;;59.98;28.50;;;;;;;6.08;100.00;99902.53;4361706;80;28450;-86
2021/10/26 23:53:27;;;;;;;51.08;26.97;;;;;;;5.91;100.00;99905.81;4354705;80;28428;-87
2021/10/26 23:59:28;;;;;;;56.18;25.95;;;;;;;5.90;100.00;99916.98;4342562;80;28457;-86
